Izumo, Japan

9:27 AM JST on October 22, 2014 (GMT +0900)
Izumo | Change Station
CLOSE
Current Station
Airport
Location: Izumo,
Elevation: 16 ft
Nearby Weather Stations

Elev 16 ft 35.41 °N, 132.89 °E | Updated 17 minutes ago

Rain Showers
Showers Rain Mist
61 °F
Feels Like 61 °F
N
24
Wind Variable Wind from ENE

Today
High -- | Low -- °F
--% Chance of Precip.
Yesterday
High -- | Low -- °F
Precip. -- in
6:20 AM 5:25 PM
Waning Crescent, 4% visible
Pressure 29.95 in
Visibility 3.7 miles
Clouds Few 800 ft
Scattered Clouds 1000 ft
Mostly Cloudy 1500 ft
Dew Point 59 °F
Humidity 94%
Rainfall 0.00 in
Snow Depth Not available.
UV 2 out of 12
Pollen Not available.
Air Quality Not available.
Flu Activity Not available.
SPECI RJOC 220010Z 06021KT 6000 SHRA BR FEW008 SCT010 BKN015 16/15 Q1014 RMK 1ST008 3CU010 5CU015 A2997

More Conditions Fewer Conditions

Pressure 29.95 in
Visibility 3.7 miles
Clouds Few 800 ft
Scattered Clouds 1000 ft
Mostly Cloudy 1500 ft
Dew Point 59 °F
Humidity 94%
Rainfall 0.00 in
Snow Depth Not available.
UV 2 out of 12
Pollen Not available.
Air Quality Not available.
Flu Activity Not available.
SPECI RJOC 220010Z 06021KT 6000 SHRA BR FEW008 SCT010 BKN015 16/15 Q1014 RMK 1ST008 3CU010 5CU015 A2997

More Conditions Fewer Conditions

10-Day Weather Forecast

Almanac

Astronomy

Oct. 22, 2014 Rise Set
Actual Time 6:20 AM JST 5:25 PM JST
Civil Twilight 5:54 AM JST 5:51 PM JST
Nautical Twilight 5:24 AM JST 6:20 PM JST
Astronomical Twilight 4:55 AM JST 6:50 PM JST
Moon 4:30 AM JST 4:28 PM JST
Length of Visible Light 11h 56m
Length of Day
11h 04m
Tomorrow will be 2m 5s shorter.
Waning Crescent, 4% of the Moon is Illuminated
Oct 21
Waning Crescent
Oct 23
New
Oct 30
First Quarter
Nov 6
Full
Nov 14
Last Quarter

Yesterday's Extremes

Country Highs Country Lows

Community

WunderPhotos

Upload Photos

1,763,827 photos uploaded!

Nearby

Snow Depth

Not available.

Earthquake Activity

City Distance Mag. Time & Date
No recent earthquake activity has been reported nearby.
Minimum magnitude displayed is 2.5.

Coastal Water Temperatures

Place Temperature
No Stations Reporting

Nearby Weather Stations